ADDS METAR Data INFO
IDs: Format: Raw Decoded Include TAF

Data at: 0407 UTC 11 Dec 2017

K2V6 110354Z AUTO 27007KT 10SM CLR M03/M17 A3028 RMK AO2
K2V6 110329Z AUTO 27009KT 10SM CLR M03/M17 A3027 RMK AO2
K2V6 110314Z AUTO 27009KT 10SM CLR M02/M17 A3027 RMK AO2
K2V6 110254Z AUTO 27009KT 10SM CLR M01/M17 A3027 RMK AO2
K2V6 110234Z AUTO 27010KT 10SM CLR M02/M18 A3027 RMK AO2
K2V6 110214Z AUTO 28009KT 10SM CLR M01/M18 A3027 RMK AO2
K2V6 110149Z AUTO 28009KT 10SM CLR M01/M18 A3028 RMK AO2
K2V6 110129Z AUTO 28010KT 10SM CLR 00/M18 A3028 RMK AO2
K2V6 110109Z AUTO 28009KT 10SM CLR 00/M18 A3028 RMK AO2
K2V6 110054Z AUTO 26007KT 10SM CLR 00/M17 A3027 RMK AO2
K2V6 110034Z AUTO 25007KT 10SM CLR 00/M17 A3027 RMK AO2
K2V6 110014Z AUTO 24008KT 10SM CLR 01/M17 A3028 RMK AO2
K2V6 102354Z AUTO 24007KT 10SM CLR 02/M17 A3028 RMK AO2
K2V6 102334Z AUTO 26006KT 10SM CLR 07/M16 A3028 RMK AO2
K2V6 102314Z AUTO 28005KT 10SM CLR 10/M16 A3028 RMK AO2
K2V6 102254Z AUTO 27004KT 10SM CLR 11/M16 A3029 RMK AO2
K2V6 102234Z AUTO 28007KT 10SM CLR 13/M16 A3029 RMK AO2
K2V6 102214Z AUTO 30007KT 10SM CLR 15/M17 A3030 RMK AO2
K2V6 102154Z AUTO 30010KT 10SM CLR 15/M18 A3030 RMK AO2
K2V6 102134Z AUTO 27010KT 10SM CLR 15/M17 A3030 RMK AO2
K2V6 102114Z AUTO 30009KT 10SM CLR 15/M17 A3030 RMK AO2
K2V6 102054Z AUTO 30010KT 10SM CLR 15/M17 A3031 RMK AO2
K2V6 102034Z AUTO 30012G17KT 10SM CLR 15/M18 A3032 RMK AO2
K2V6 102014Z AUTO 31012KT 10SM CLR 15/M17 A3032 RMK AO2
K2V6 101954Z AUTO 32011G15KT 10SM CLR 15/M17 A3033 RMK AO2
K2V6 101934Z AUTO 31010KT 10SM CLR 15/M17 A3034 RMK AO2
K2V6 101914Z AUTO 31013G16KT 10SM CLR 15/M17 A3035 RMK AO2
K2V6 101854Z AUTO 34012G16KT 10SM CLR 14/M17 A3035 RMK AO2
K2V6 101834Z AUTO 32007KT 10SM CLR 13/M16 A3037 RMK AO2
K2V6 101814Z AUTO 32011KT 10SM CLR 13/M16 A3037 RMK AO2
K2V6 101754Z AUTO 31014G19KT 10SM CLR 12/M16 A3037 RMK AO2
K2V6 101734Z AUTO 30014G18KT 10SM CLR 11/M16 A3038 RMK AO2
K2V6 101714Z AUTO 30015KT 10SM CLR 10/M16 A3038 RMK AO2
K2V6 101649Z AUTO 29011KT 10SM CLR 09/M16 A3038 RMK AO2
K2V6 101634Z AUTO 29014G20KT 10SM CLR 08/M16 A3038 RMK AO2
K2V6 101614Z AUTO 28014G19KT 10SM CLR 06/M16 A3038 RMK AO2
K2V6 101554Z AUTO 28013KT 10SM CLR 05/M16 A3037 RMK AO2
K2V6 101534Z AUTO 28015KT 10SM CLR 04/M16 A3037 RMK AO2
K2V6 101514Z AUTO 28012G17KT 10SM CLR 02/M16 A3036 RMK AO2
K2V6 101454Z AUTO 28013KT 10SM CLR 01/M16 A3036 RMK AO2
K2V6 101434Z AUTO 28014KT 10SM CLR 00/M17 A3035 RMK AO2
K2V6 101414Z AUTO 28012KT 10SM CLR 00/M16 A3035 RMK AO2
K2V6 101354Z AUTO 27012KT 10SM CLR 00/M16 A3035 RMK AO2
K2V6 101334Z AUTO 27011KT 10SM CLR 00/M16 A3035 RMK AO2
K2V6 101314Z AUTO 28013KT 10SM CLR 00/M16 A3035 RMK AO2
K2V6 101254Z AUTO 28012KT 10SM CLR 00/M16 A3035 RMK AO2
K2V6 101234Z AUTO 28014KT 10SM CLR 00/M16 A3034 RMK AO2
K2V6 101214Z AUTO 28012KT 10SM CLR 00/M15 A3034 RMK AO2
K2V6 101154Z AUTO 27012KT 10SM CLR 00/M15 A3034 RMK AO2
K2V6 101134Z AUTO 27010KT 10SM CLR 00/M15 A3034 RMK AO2
K2V6 101114Z AUTO 27011KT 10SM CLR 00/M15 A3034 RMK AO2
K2V6 101054Z AUTO 27011KT 10SM CLR 00/M15 A3034 RMK AO2
K2V6 101029Z AUTO 27011KT 10SM CLR M01/M15 A3034 RMK AO2
K2V6 101009Z AUTO 27010KT 10SM CLR M01/M15 A3034 RMK AO2
K2V6 100954Z AUTO 27011KT 10SM CLR M01/M15 A3034 RMK AO2
K2V6 100934Z AUTO 27011KT 10SM CLR M01/M15 A3035 RMK AO2
K2V6 100914Z AUTO 27010KT 10SM CLR M01/M15 A3035 RMK AO2
K2V6 100854Z AUTO 27010KT 10SM CLR M01/M15 A3035 RMK AO2
K2V6 100834Z AUTO 27010KT 10SM CLR 00/M15 A3034 RMK AO2
K2V6 100814Z AUTO 27010KT 10SM CLR M01/M15 A3034 RMK AO2
K2V6 100754Z AUTO 27011KT 10SM CLR M01/M15 A3034 RMK AO2
K2V6 100734Z AUTO 27011KT 10SM CLR M01/M16 A3034 RMK AO2
K2V6 100714Z AUTO 27011KT 10SM CLR 00/M15 A3034 RMK AO2
K2V6 100654Z AUTO 28013KT 10SM CLR 01/M15 A3034 RMK AO2
K2V6 100629Z AUTO 28014KT 10SM CLR 01/M15 A3034 RMK AO2
K2V6 100609Z AUTO 27012KT 10SM CLR 00/M15 A3034 RMK AO2
K2V6 100554Z AUTO 27010KT 10SM CLR 00/M14 A3034 RMK AO2
K2V6 100534Z AUTO 28011KT 10SM CLR 00/M14 A3034 RMK AO2
K2V6 100514Z AUTO 28009KT 10SM CLR 00/M14 A3033 RMK AO2
K2V6 100449Z AUTO 29011KT 10SM CLR 00/M14 A3032 RMK AO2
K2V6 100429Z AUTO 29010KT 10SM CLR 00/M14 A3032 RMK AO2
K2V6 100409Z AUTO 29011KT 10SM CLR 00/M14 A3032 RMK AO2
K2V6 100354Z AUTO 28011KT 10SM CLR 00/M14 A3032 RMK AO2
K2V6 100334Z AUTO 28010KT 10SM CLR 00/M14 A3032 RMK AO2
K2V6 100314Z AUTO 29011KT 10SM CLR 00/M14 A3031 RMK AO2
K2V6 100254Z AUTO 30011KT 10SM CLR 00/M14 A3031 RMK AO2
K2V6 100229Z AUTO 29010KT 10SM CLR 00/M14 A3031 RMK AO2
K2V6 100209Z AUTO 29008KT 10SM CLR M01/M15 A3031 RMK AO2
K2V6 100149Z AUTO 29008KT 10SM CLR 00/M15 A3031 RMK AO2
K2V6 100129Z AUTO 29008KT 10SM CLR 00/M15 A3031 RMK AO2
K2V6 100114Z AUTO 28008KT 10SM CLR 00/M15 A3030 RMK AO2
K2V6 100054Z AUTO 28009KT 10SM CLR 00/M15 A3030 RMK AO2
K2V6 100034Z AUTO 29008KT 10SM CLR 00/M16 A3029 RMK AO2
K2V6 100014Z AUTO 30006KT 10SM CLR 06/M16 A3029 RMK AO2
K2V6 092354Z AUTO 32009KT 10SM CLR 08/M15 A3028 RMK AO2
K2V6 092334Z AUTO 33011KT 10SM CLR 10/M15 A3027 RMK AO2
K2V6 092314Z AUTO 32012G16KT 10SM CLR 10/M15 A3027 RMK AO2
K2V6 092254Z AUTO 31012KT 10SM CLR 11/M15 A3027 RMK AO2
K2V6 092234Z AUTO 32013KT 10SM CLR 12/M15 A3026 RMK AO2
K2V6 092214Z AUTO 33011G20KT 10SM CLR 13/M16 A3026 RMK AO2
K2V6 092154Z AUTO 33011G22KT 10SM CLR 13/M16 A3026 RMK AO2
K2V6 092134Z AUTO 33016G24KT 10SM CLR 13/M16 A3026 RMK AO2
K2V6 092114Z AUTO 32014G23KT 10SM CLR 13/M15 A3025 RMK AO2
K2V6 092054Z AUTO 32017G23KT 10SM CLR 14/M15 A3025 RMK AO2
K2V6 092034Z AUTO 33016G22KT 10SM CLR 14/M15 A3025 RMK AO2
K2V6 092014Z AUTO 34014G25KT 10SM CLR 14/M15 A3025 RMK AO2
K2V6 091954Z AUTO 33020G27KT 10SM CLR 14/M15 A3026 RMK AO2
K2V6 091934Z AUTO 34014G22KT 10SM CLR 13/M15 A3026 RMK AO2
K2V6 091914Z AUTO 34018G23KT 10SM CLR 13/M15 A3026 RMK AO2
K2V6 091854Z AUTO 33014G23KT 10SM CLR 13/M13 A3028 RMK AO2
K2V6 091834Z AUTO 32017G25KT 10SM CLR 12/M14 A3028 RMK AO2
K2V6 091814Z AUTO 33013G22KT 10SM CLR 12/M13 A3028 RMK AO2
K2V6 091749Z AUTO 33011G24KT 10SM CLR 11/M13 A3029 RMK AO2
K2V6 091729Z AUTO 32015G22KT 10SM CLR 10/M13 A3029 RMK AO2
K2V6 091709Z AUTO 31012G18KT 10SM CLR 09/M12 A3030 RMK AO2
K2V6 091654Z AUTO 30011G17KT 10SM CLR 08/M12 A3030 RMK AO2
K2V6 091634Z AUTO 29012KT 10SM CLR 07/M11 A3030 RMK AO2
K2V6 091614Z AUTO 29013G17KT 10SM CLR 06/M11 A3029 RMK AO2